MAPA DE AEROPUERTO

INFORMACIÓN METAR y TAF

METAR FOR LEBZ
ADDS - METARS form results

(0847 UTC 05 December 2020)
Data provider http://aviationweather.gov/metar/data/
 
METAR text: LEBZ 050830Z AUTO 26007KT CAVOK 04/03 Q1008
Conditions at: LEBZ (TALAVERA AB/BADA, ES) observed 0830 UTC 05 December 2020
Temperature: 4.0°C (39°F)
Dewpoint: 3.0°C (37°F) [RH = 93%]
Pressure (altimeter): 29.76 inches Hg (1008.0 mb)
Winds: from the W (260 degrees) at 8 MPH (7 knots; 3.6 m/s)
Visibility: 6 or more miles (10+ km)
Ceiling: ceiling and visibility are OK
Clouds: unknown
Weather: no significant weather observed at this time

METAR text: LEBZ 050800Z AUTO 27009KT 9999 FEW007 04/03 Q1008
Conditions at: LEBZ (TALAVERA AB/BADA, ES) observed 0800 UTC 05 December 2020
Temperature: 4.0°C (39°F)
Dewpoint: 3.0°C (37°F) [RH = 93%]
Pressure (altimeter): 29.76 inches Hg (1008.0 mb)
Winds: from the W (270 degrees) at 10 MPH (9 knots; 4.6 m/s)
Visibility: 6 or more miles (10+ km)
Ceiling: at least 12,000 feet AGL
Clouds: few clouds at 700 feet AGL
Weather: no significant weather observed at this time

Forecast for: LEBZ (TALAVERA AB/BADA, ES)
Text: TAF LEBZ 050500Z 0506/0606 27009KT CAVOK TX11/0514Z TN02/0507Z
Forecast period: 0600 UTC 05 December 2020 to 0600 UTC 06 December 2020
Forecast type: FROM: standard forecast or significant change
Winds: from the W (270 degrees) at 10 MPH (9 knots; 4.6 m/s)
Visibility: 6 or more miles (10+ km)
Ceiling: unknown
Clouds: missing
Weather: no significant weather forecast for this period